Time;durP1;ratioP1;P1;durP2;ratioP2;P2;SDS_P1;SDS_P2;PMS_P1;PMS_P2;Temp;Humidity;BMP_temperature;BMP_pressure;BME280_temperature;BME280_humidity;BME280_pressure;Samples;Min_cycle;Max_cycle;Signal;HPM_P1;HPM_P2
2021/08/22 00:01:27;;;;;;;23.05;20.75;;;;;;;;;;5092073;28;20048;-92
2021/08/22 00:03:53;;;;;;;21.70;19.52;;;;;;;;;;5092942;28;20066;-92
2021/08/22 00:06:19;;;;;;;22.33;20.13;;;;;;;;;;5092244;28;20411;-91
2021/08/22 00:08:46;;;;;;;22.08;19.83;;;;;;;;;;5093329;28;20426;-92
2021/08/22 00:11:12;;;;;;;21.77;19.50;;;;;;;;;;5074628;28;20052;-89
2021/08/22 00:13:39;;;;;;;21.17;19.05;;;;;;;;;;5069520;28;20054;-93
2021/08/22 00:16:05;;;;;;;21.67;19.48;;;;;;;;;;5067935;28;20115;-92
2021/08/22 00:18:32;;;;;;;20.60;18.40;;;;;;;;;;5054956;28;20044;-90
2021/08/22 00:21:00;;;;;;;22.50;20.05;;;;;;;;;;5071296;28;20049;-87
2021/08/22 00:23:28;;;;;;;22.08;19.73;;;;;;;;;;5063750;28;20049;-92
2021/08/22 00:25:54;;;;;;;21.77;19.48;;;;;;;;;;5076347;28;20051;-92
2021/08/22 00:28:21;;;;;;;22.48;20.08;;;;;;;;;;5088692;27;20059;-91
2021/08/22 00:30:47;;;;;;;21.55;19.35;;;;;;;;;;5090511;28;20047;-92
2021/08/22 00:33:13;;;;;;;21.42;19.23;;;;;;;;;;5083631;28;20155;-91
2021/08/22 00:35:39;;;;;;;21.50;19.40;;;;;;;;;;5086811;28;20052;-92
2021/08/22 00:38:05;;;;;;;21.15;19.05;;;;;;;;;;5073333;28;20052;-91
2021/08/22 00:40:32;;;;;;;22.00;19.77;;;;;;;;;;5070561;28;20107;-92
2021/08/22 00:43:00;;;;;;;25.08;20.80;;;;;;;;;;5081759;28;20075;-91
2021/08/22 00:45:27;;;;;;;22.25;19.90;;;;;;;;;;5087328;28;20051;-92
2021/08/22 00:47:53;;;;;;;22.45;20.10;;;;;;;;;;5079080;28;20063;-90
2021/08/22 00:50:19;;;;;;;22.58;20.23;;;;;;;;;;5090763;28;20052;-91
2021/08/22 00:52:46;;;;;;;22.83;20.55;;;;;;;;;;5088439;28;20056;-92
2021/08/22 00:55:12;;;;;;;23.17;20.75;;;;;;;;;;5088374;28;20662;-91
2021/08/22 00:57:39;;;;;;;22.58;20.27;;;;;;;;;;5087909;28;20491;-91
2021/08/22 01:00:09;;;;;;;21.95;19.75;;;;;;;;;;5091121;28;20047;-91
2021/08/22 01:02:36;;;;;;;23.65;21.35;;;;;;;;;;5070903;28;20052;-91
2021/08/22 01:05:20;;;;;;;22.13;19.80;;;;;;;;;;5071022;28;20097;-91
2021/08/22 01:07:50;;;;;;;24.55;21.60;;;;;;;;;;5078518;28;20491;-91
2021/08/22 01:10:23;;;;;;;24.05;21.45;;;;;;;;;;5087129;28;20051;-90
2021/08/22 01:13:04;;;;;;;23.30;20.85;;;;;;;;;;5083660;28;20139;-91
2021/08/22 01:15:35;;;;;;;23.55;20.80;;;;;;;;;;5087314;28;20052;-90
2021/08/22 01:18:04;;;;;;;23.60;20.65;;;;;;;;;;5091853;28;20557;-91
2021/08/22 01:20:30;;;;;;;23.52;21.02;;;;;;;;;;5073178;28;20062;-89
2021/08/22 01:22:57;;;;;;;23.27;20.77;;;;;;;;;;5090609;28;20044;-91
2021/08/22 01:25:24;;;;;;;23.48;21.02;;;;;;;;;;5076986;28;20113;-91
2021/08/22 01:27:51;;;;;;;23.95;21.52;;;;;;;;;;5074426;28;20044;-90
2021/08/22 01:30:18;;;;;;;24.15;21.60;;;;;;;;;;5068531;28;20412;-91
2021/08/22 01:32:46;;;;;;;25.23;22.67;;;;;;;;;;5081535;28;20048;-91
2021/08/22 01:35:13;;;;;;;24.50;22.00;;;;;;;;;;5073626;28;20097;-91
2021/08/22 01:37:40;;;;;;;24.42;21.83;;;;;;;;;;5071631;28;20053;-92
2021/08/22 01:40:08;;;;;;;24.92;22.33;;;;;;;;;;5078651;28;20101;-91
2021/08/22 01:42:34;;;;;;;24.63;21.98;;;;;;;;;;5079481;28;20067;-91
2021/08/22 01:45:02;;;;;;;24.10;21.25;;;;;;;;;;5083785;28;20044;-91
2021/08/22 01:47:28;;;;;;;24.33;21.30;;;;;;;;;;5078463;28;20491;-92
2021/08/22 01:49:55;;;;;;;24.42;21.90;;;;;;;;;;5072488;28;20101;-91
2021/08/22 01:52:22;;;;;;;24.42;20.70;;;;;;;;;;5062130;28;20099;-91
2021/08/22 01:54:48;;;;;;;23.00;20.17;;;;;;;;;;5070621;28;20057;-91
2021/08/22 01:57:14;;;;;;;24.27;21.67;;;;;;;;;;5072720;28;20052;-91
2021/08/22 01:59:41;;;;;;;22.55;20.25;;;;;;;;;;5066816;28;20193;-91
2021/08/22 02:02:07;;;;;;;24.33;21.92;;;;;;;;;;5075773;28;20056;-91
2021/08/22 02:04:46;;;;;;;23.40;20.70;;;;;;;;;;5081188;28;20048;-91
2021/08/22 02:07:20;;;;;;;24.30;21.73;;;;;;;;;;5077742;28;20089;-91
2021/08/22 02:09:49;;;;;;;25.42;22.83;;;;;;;;;;5094674;28;20492;-92
2021/08/22 02:12:18;;;;;;;26.40;23.60;;;;;;;;;;5075946;28;20560;-89
2021/08/22 02:14:46;;;;;;;25.77;23.10;;;;;;;;;;5082451;28;20170;-89
2021/08/22 02:17:13;;;;;;;26.10;23.38;;;;;;;;;;5084781;28;20053;-91
2021/08/22 02:19:39;;;;;;;25.35;22.85;;;;;;;;;;5075616;28;20036;-92
2021/08/22 02:22:06;;;;;;;27.85;24.73;;;;;;;;;;5078159;28;20458;-92
2021/08/22 02:24:32;;;;;;;29.00;26.10;;;;;;;;;;5065515;28;20068;-94
2021/08/22 02:26:58;;;;;;;29.60;26.60;;;;;;;;;;5067226;28;20102;-93
2021/08/22 02:29:25;;;;;;;27.90;25.13;;;;;;;;;;5074361;28;20506;-93
2021/08/22 02:31:51;;;;;;;31.15;27.80;;;;;;;;;;5074578;28;20064;-93
2021/08/22 02:34:17;;;;;;;28.52;25.65;;;;;;;;;;5077882;28;20040;-89
2021/08/22 02:36:44;;;;;;;30.00;26.90;;;;;;;;;;5067820;28;20108;-92
2021/08/22 02:39:10;;;;;;;28.38;25.58;;;;;;;;;;5080690;28;20051;-92
2021/08/22 02:41:36;;;;;;;29.52;26.42;;;;;;;;;;5075956;28;20056;-91
2021/08/22 02:44:03;;;;;;;29.35;26.45;;;;;;;;;;5073286;28;20502;-92
2021/08/22 02:46:29;;;;;;;30.33;27.13;;;;;;;;;;5078770;28;20052;-91
2021/08/22 02:48:55;;;;;;;28.85;25.95;;;;;;;;;;5065655;28;20071;-91
2021/08/22 02:51:22;;;;;;;31.08;27.88;;;;;;;;;;5071854;28;20052;-90
2021/08/22 02:53:48;;;;;;;30.55;27.30;;;;;;;;;;5076800;28;20119;-92
2021/08/22 02:56:14;;;;;;;29.85;26.85;;;;;;;;;;5074216;28;20049;-92
2021/08/22 02:58:41;;;;;;;30.50;27.35;;;;;;;;;;5079207;28;20427;-91
2021/08/22 03:01:07;;;;;;;31.70;28.35;;;;;;;;;;5048133;28;20083;-93
2021/08/22 03:03:34;;;;;;;32.83;29.33;;;;;;;;;;5072762;28;20106;-90
2021/08/22 03:06:00;;;;;;;32.85;29.45;;;;;;;;;;5061740;28;20047;-93
2021/08/22 03:08:26;;;;;;;32.22;28.95;;;;;;;;;;5054806;28;20058;-92
2021/08/22 03:10:52;;;;;;;34.42;29.92;;;;;;;;;;5077542;28;20056;-92
2021/08/22 03:13:19;;;;;;;33.78;29.98;;;;;;;;;;5063274;28;20128;-90
2021/08/22 03:15:45;;;;;;;33.38;29.70;;;;;;;;;;5059189;28;20120;-93
2021/08/22 03:18:12;;;;;;;35.97;30.55;;;;;;;;;;5075687;28;20048;-92
2021/08/22 03:20:38;;;;;;;34.83;30.95;;;;;;;;;;5061748;28;20053;-93
2021/08/22 03:23:04;;;;;;;36.00;32.10;;;;;;;;;;5083508;28;20046;-93
2021/08/22 03:25:30;;;;;;;34.28;30.10;;;;;;;;;;5080284;28;20048;-89
2021/08/22 03:27:57;;;;;;;34.97;31.17;;;;;;;;;;5063656;28;20440;-91
2021/08/22 03:30:23;;;;;;;36.85;31.52;;;;;;;;;;5080685;28;20052;-92
2021/08/22 03:32:49;;;;;;;35.75;30.63;;;;;;;;;;5072319;28;20080;-93
2021/08/22 03:35:16;;;;;;;34.63;30.85;;;;;;;;;;5068512;28;20052;-93
2021/08/22 03:37:42;;;;;;;40.28;33.42;;;;;;;;;;5066096;28;20048;-93
2021/08/22 03:40:09;;;;;;;34.90;30.65;;;;;;;;;;5070027;28;20079;-93
2021/08/22 03:42:35;;;;;;;37.58;32.15;;;;;;;;;;5078341;28;20078;-93
2021/08/22 03:45:01;;;;;;;34.25;30.45;;;;;;;;;;5068065;28;20538;-93
2021/08/22 03:47:27;;;;;;;40.95;33.17;;;;;;;;;;5066198;28;20044;-92
2021/08/22 03:49:54;;;;;;;40.17;32.55;;;;;;;;;;5074854;28;20045;-92
2021/08/22 03:52:20;;;;;;;38.58;32.58;;;;;;;;;;5085166;28;20056;-91
2021/08/22 03:54:46;;;;;;;35.53;30.52;;;;;;;;;;5077058;28;20045;-92
2021/08/22 03:57:12;;;;;;;36.42;31.77;;;;;;;;;;5086405;28;20511;-92
2021/08/22 03:59:38;;;;;;;35.40;30.38;;;;;;;;;;5062867;28;20048;-92
2021/08/22 04:02:06;;;;;;;37.40;31.88;;;;;;;;;;5080127;28;20544;-93
2021/08/22 04:04:32;;;;;;;38.08;32.47;;;;;;;;;;5067077;28;20135;-93
2021/08/22 04:06:59;;;;;;;38.47;31.02;;;;;;;;;;5086806;28;20094;-94
2021/08/22 04:09:25;;;;;;;36.03;30.50;;;;;;;;;;5084310;28;20064;-92
2021/08/22 04:11:53;;;;;;;37.35;31.85;;;;;;;;;;5070053;28;20105;-94
2021/08/22 04:14:19;;;;;;;35.13;29.98;;;;;;;;;;5067999;28;20049;-93
2021/08/22 04:16:49;;;;;;;37.33;31.77;;;;;;;;;;5063393;28;20048;-93
2021/08/22 04:19:16;;;;;;;39.33;32.70;;;;;;;;;;5080078;28;20206;-93
2021/08/22 04:21:42;;;;;;;39.65;33.10;;;;;;;;;;5072731;28;20040;-93
2021/08/22 04:24:09;;;;;;;37.10;31.55;;;;;;;;;;5079019;28;20052;-93
2021/08/22 04:26:35;;;;;;;34.53;29.98;;;;;;;;;;5086175;28;20054;-92
2021/08/22 04:29:02;;;;;;;35.58;31.08;;;;;;;;;;5077793;28;20531;-93
2021/08/22 04:31:28;;;;;;;36.20;30.77;;;;;;;;;;5071382;28;20072;-94
2021/08/22 04:33:54;;;;;;;40.00;32.92;;;;;;;;;;5082275;28;20063;-94
2021/08/22 04:36:20;;;;;;;37.10;32.58;;;;;;;;;;5074165;28;20041;-92
2021/08/22 04:38:46;;;;;;;37.50;32.28;;;;;;;;;;5078264;28;20052;-95
2021/08/22 04:41:19;;;;;;;38.47;31.63;;;;;;;;;;5087236;28;20044;-95
2021/08/22 04:43:46;;;;;;;44.28;32.88;;;;;;;;;;5066454;28;20064;-95
2021/08/22 04:46:12;;;;;;;41.72;33.13;;;;;;;;;;5075044;28;20048;-94
2021/08/22 04:48:39;;;;;;;37.65;31.05;;;;;;;;;;5064328;28;20480;-95
2021/08/22 04:51:05;;;;;;;39.55;31.73;;;;;;;;;;5075041;28;20091;-96
2021/08/22 04:53:33;;;;;;;36.25;30.40;;;;;;;;;;5074561;28;20408;-93
2021/08/22 04:56:00;;;;;;;39.35;31.13;;;;;;;;;;5057424;28;20874;-93
2021/08/22 04:58:26;;;;;;;38.97;31.42;;;;;;;;;;5068512;28;20091;-91
2021/08/22 05:00:52;;;;;;;36.55;30.02;;;;;;;;;;5079732;28;20073;-94
2021/08/22 05:03:18;;;;;;;43.97;32.55;;;;;;;;;;5078557;28;20048;-94
2021/08/22 05:05:44;;;;;;;43.55;32.97;;;;;;;;;;5069089;28;20453;-94
2021/08/22 05:08:11;;;;;;;39.15;30.67;;;;;;;;;;5067697;28;20052;-94
2021/08/22 05:10:37;;;;;;;35.47;29.42;;;;;;;;;;5073987;28;20048;-94
2021/08/22 05:13:03;;;;;;;35.20;29.73;;;;;;;;;;5081541;28;20413;-94
2021/08/22 05:15:30;;;;;;;35.15;30.15;;;;;;;;;;5071538;28;20476;-95
2021/08/22 05:17:56;;;;;;;31.67;27.27;;;;;;;;;;5063154;28;20056;-94
2021/08/22 05:20:22;;;;;;;35.75;29.23;;;;;;;;;;5078111;28;20392;-93
2021/08/22 05:22:49;;;;;;;37.60;30.60;;;;;;;;;;5075716;28;20046;-94
2021/08/22 05:25:15;;;;;;;39.22;31.63;;;;;;;;;;5064544;28;20637;-95
2021/08/22 05:27:41;;;;;;;40.88;32.15;;;;;;;;;;5068119;28;20485;-94
2021/08/22 05:30:08;;;;;;;34.22;28.27;;;;;;;;;;5074831;28;20056;-94
2021/08/22 05:32:34;;;;;;;35.15;28.00;;;;;;;;;;5068716;28;20045;-94
2021/08/22 05:35:00;;;;;;;31.67;26.73;;;;;;;;;;5077830;28;21214;-95
2021/08/22 05:37:26;;;;;;;33.33;27.50;;;;;;;;;;5070999;28;20106;-91
2021/08/22 05:39:52;;;;;;;32.25;26.58;;;;;;;;;;5091260;28;20044;-94
2021/08/22 05:42:18;;;;;;;37.53;27.95;;;;;;;;;;5065891;28;20458;-95
2021/08/22 05:44:45;;;;;;;42.08;31.40;;;;;;;;;;5062776;28;20072;-93
2021/08/22 05:47:12;;;;;;;39.33;29.08;;;;;;;;;;5068936;28;20068;-94
2021/08/22 05:49:41;;;;;;;35.38;29.60;;;;;;;;;;5077438;28;20063;-93
2021/08/22 05:52:08;;;;;;;40.25;31.90;;;;;;;;;;5099945;28;20055;-93
2021/08/22 05:54:34;;;;;;;39.67;30.77;;;;;;;;;;5062825;28;20052;-92
2021/08/22 05:57:01;;;;;;;37.72;29.52;;;;;;;;;;5076849;28;20051;-93
2021/08/22 05:59:27;;;;;;;38.42;29.00;;;;;;;;;;5064162;28;20102;-92
2021/08/22 06:01:53;;;;;;;41.25;32.20;;;;;;;;;;5072455;28;20052;-93
2021/08/22 06:04:19;;;;;;;41.38;31.92;;;;;;;;;;5069512;28;20488;-94
2021/08/22 06:06:46;;;;;;;41.67;30.52;;;;;;;;;;5069701;28;20036;-95
2021/08/22 06:09:12;;;;;;;36.17;29.92;;;;;;;;;;5084349;28;20048;-93
2021/08/22 06:11:38;;;;;;;39.05;31.25;;;;;;;;;;5070235;28;20048;-94
2021/08/22 06:14:04;;;;;;;40.17;31.13;;;;;;;;;;5085340;28;20040;-94
2021/08/22 06:16:31;;;;;;;35.15;28.60;;;;;;;;;;5072004;28;20052;-95
2021/08/22 06:18:59;;;;;;;41.97;33.20;;;;;;;;;;5060862;28;20510;-93
2021/08/22 06:21:26;;;;;;;49.42;35.08;;;;;;;;;;5076613;28;20097;-93
2021/08/22 06:23:53;;;;;;;42.22;34.35;;;;;;;;;;5080396;28;20063;-94
2021/08/22 06:26:20;;;;;;;53.58;37.47;;;;;;;;;;5079753;28;20403;-94
2021/08/22 06:28:46;;;;;;;51.97;36.75;;;;;;;;;;5062025;28;20488;-95
2021/08/22 06:31:12;;;;;;;40.08;32.88;;;;;;;;;;5072719;28;20105;-94
2021/08/22 06:33:38;;;;;;;57.55;39.88;;;;;;;;;;5067659;28;20048;-94
2021/08/22 06:36:05;;;;;;;48.78;36.97;;;;;;;;;;5073716;28;20071;-92
2021/08/22 06:38:31;;;;;;;47.67;36.17;;;;;;;;;;5077057;28;20131;-90
2021/08/22 06:40:57;;;;;;;47.38;37.50;;;;;;;;;;5071651;28;20083;-93
2021/08/22 06:43:23;;;;;;;44.05;36.88;;;;;;;;;;5068381;28;20049;-94
2021/08/22 06:45:50;;;;;;;43.08;35.90;;;;;;;;;;5062862;28;20044;-94
2021/08/22 06:48:16;;;;;;;45.22;36.65;;;;;;;;;;5079813;28;20056;-93
2021/08/22 06:50:43;;;;;;;50.85;39.95;;;;;;;;;;5084133;28;20051;-93
2021/08/22 06:53:09;;;;;;;41.45;35.70;;;;;;;;;;5069743;28;20105;-95
2021/08/22 06:55:35;;;;;;;46.00;38.42;;;;;;;;;;5079017;28;20054;-94
2021/08/22 06:58:01;;;;;;;37.72;33.72;;;;;;;;;;5081122;28;20143;-92
2021/08/22 07:00:28;;;;;;;44.05;37.67;;;;;;;;;;5078344;28;20049;-89
2021/08/22 07:02:54;;;;;;;41.22;36.38;;;;;;;;;;5079341;28;20377;-92
2021/08/22 07:05:20;;;;;;;42.20;36.08;;;;;;;;;;5049331;28;20361;-94
2021/08/22 07:07:46;;;;;;;39.08;34.80;;;;;;;;;;5079114;28;20056;-96
2021/08/22 07:10:13;;;;;;;37.30;33.28;;;;;;;;;;5073130;28;20049;-93
2021/08/22 07:12:39;;;;;;;39.50;34.03;;;;;;;;;;5066617;28;20124;-94
2021/08/22 07:15:05;;;;;;;43.65;36.45;;;;;;;;;;5064784;28;20075;-96
2021/08/22 07:17:31;;;;;;;40.58;36.17;;;;;;;;;;5061692;28;20575;-91
2021/08/22 07:19:58;;;;;;;36.58;32.67;;;;;;;;;;5065774;28;20048;-91
2021/08/22 07:22:24;;;;;;;33.53;30.05;;;;;;;;;;5068301;28;20053;-90
2021/08/22 07:24:50;;;;;;;35.88;32.03;;;;;;;;;;5063154;28;20531;-89
2021/08/22 07:27:17;;;;;;;44.75;35.65;;;;;;;;;;5073197;28;20049;-90
2021/08/22 07:29:43;;;;;;;40.35;35.05;;;;;;;;;;5071625;28;20477;-89
2021/08/22 07:32:10;;;;;;;36.28;32.38;;;;;;;;;;5069629;28;20062;-94
2021/08/22 07:34:36;;;;;;;34.15;30.63;;;;;;;;;;5074665;28;20044;-93
2021/08/22 07:37:02;;;;;;;34.58;30.98;;;;;;;;;;5084260;28;20043;-94
2021/08/22 07:39:29;;;;;;;34.35;30.65;;;;;;;;;;5061046;28;20053;-92
2021/08/22 07:42:07;;;;;;;35.17;31.38;;;;;;;;;;5050437;28;20507;-94
2021/08/22 07:44:33;;;;;;;32.65;29.10;;;;;;;;;;5082061;28;20048;-94
2021/08/22 07:46:59;;;;;;;37.72;32.75;;;;;;;;;;5078236;28;20066;-95
2021/08/22 07:49:25;;;;;;;33.80;29.15;;;;;;;;;;5056769;28;20053;-95
2021/08/22 07:51:52;;;;;;;32.50;29.02;;;;;;;;;;5056135;28;20424;-95
2021/08/22 07:54:18;;;;;;;33.15;29.52;;;;;;;;;;5064317;28;20044;-91
2021/08/22 07:56:45;;;;;;;30.40;27.30;;;;;;;;;;5066109;28;20059;-93
2021/08/22 07:59:11;;;;;;;28.45;25.52;;;;;;;;;;5079039;28;20040;-93
2021/08/22 08:01:37;;;;;;;28.50;25.50;;;;;;;;;;5079116;28;20041;-93
2021/08/22 08:04:08;;;;;;;25.13;22.63;;;;;;;;;;5066070;28;20050;-92
2021/08/22 08:06:34;;;;;;;25.58;22.98;;;;;;;;;;5079717;28;20044;-93
2021/08/22 08:09:01;;;;;;;26.70;24.05;;;;;;;;;;5070429;28;20094;-93
2021/08/22 08:11:27;;;;;;;25.27;22.67;;;;;;;;;;5066866;28;20506;-92
2021/08/22 08:13:53;;;;;;;28.42;25.38;;;;;;;;;;5061693;28;20056;-93
2021/08/22 08:16:20;;;;;;;27.35;24.55;;;;;;;;;;5077269;28;20036;-91
2021/08/22 08:18:46;;;;;;;28.00;25.10;;;;;;;;;;5083081;28;20052;-94
2021/08/22 08:21:14;;;;;;;28.30;25.30;;;;;;;;;;5072749;28;20055;-93
2021/08/22 08:23:41;;;;;;;26.58;23.88;;;;;;;;;;5059837;28;20048;-93
2021/08/22 08:26:07;;;;;;;23.13;20.92;;;;;;;;;;5069641;28;20052;-93
2021/08/22 08:28:33;;;;;;;27.95;24.95;;;;;;;;;;5084661;28;20055;-93
2021/08/22 08:31:04;;;;;;;24.27;21.83;;;;;;;;;;5062281;28;20047;-93
2021/08/22 08:33:30;;;;;;;24.55;21.98;;;;;;;;;;5087481;28;20050;-93
2021/08/22 08:35:56;;;;;;;23.63;21.33;;;;;;;;;;5070553;28;20145;-93
2021/08/22 08:38:22;;;;;;;21.27;19.13;;;;;;;;;;5082275;28;20068;-92
2021/08/22 08:40:49;;;;;;;22.77;20.40;;;;;;;;;;5077922;28;20044;-93
2021/08/22 08:43:16;;;;;;;22.15;20.00;;;;;;;;;;5068641;28;20488;-92
2021/08/22 08:46:12;;;;;;;22.90;20.73;;;;;;;;;;5067379;28;20063;-92
2021/08/22 08:48:57;;;;;;;22.02;19.92;;;;;;;;;;5077754;28;20041;-92
2021/08/22 08:51:26;;;;;;;20.13;18.23;;;;;;;;;;5088569;28;20051;-93
2021/08/22 08:53:59;;;;;;;19.45;17.58;;;;;;;;;;5084421;28;20040;-93
2021/08/22 08:56:30;;;;;;;19.48;17.58;;;;;;;;;;5064320;28;20147;-92
2021/08/22 08:58:56;;;;;;;20.45;18.52;;;;;;;;;;5091603;28;20049;-93
2021/08/22 09:01:22;;;;;;;19.20;17.17;;;;;;;;;;5075735;28;20073;-93
2021/08/22 09:04:08;;;;;;;18.02;16.27;;;;;;;;;;5080956;28;20044;-92
2021/08/22 09:06:34;;;;;;;;;;;;;;;;;;5096804;28;20040;-93
2021/08/22 09:09:14;;;;;;;15.27;13.73;;;;;;;;;;5089349;28;20360;-90
2021/08/22 09:11:55;;;;;;;15.48;13.98;;;;;;;;;;5082203;28;20044;-92
2021/08/22 09:14:39;;;;;;;15.10;13.63;;;;;;;;;;5076689;28;20519;-93
2021/08/22 09:17:18;;;;;;;16.00;14.40;;;;;;;;;;5092599;28;20052;-91
2021/08/22 09:19:56;;;;;;;14.93;13.45;;;;;;;;;;5078451;28;20056;-93
2021/08/22 09:22:41;;;;;;;13.55;12.15;;;;;;;;;;5081937;28;20072;-92
2021/08/22 09:25:26;;;;;;;14.70;13.23;;;;;;;;;;5074251;28;20070;-91
2021/08/22 09:27:52;;;;;;;16.48;14.77;;;;;;;;;;5093317;28;20052;-93
2021/08/22 09:30:24;;;;;;;17.15;15.45;;;;;;;;;;5061940;28;20047;-93
2021/08/22 09:33:09;;;;;;;19.02;17.08;;;;;;;;;;5068267;28;20076;-92
2021/08/22 09:35:35;;;;;;;16.52;14.85;;;;;;;;;;5076480;28;20170;-92
2021/08/22 09:38:20;;;;;;;16.23;14.63;;;;;;;;;;5075508;28;20048;-89
2021/08/22 09:41:01;;;;;;;15.93;14.23;;;;;;;;;;5077030;28;20492;-92
2021/08/22 09:43:46;;;;;;;16.63;14.90;;;;;;;;;;5072908;28;20130;-92
2021/08/22 09:46:31;;;;;;;15.23;13.65;;;;;;;;;;5080913;28;20052;-92
2021/08/22 09:49:18;;;;;;;14.63;13.18;;;;;;;;;;5065175;28;20053;-93
2021/08/22 09:52:03;;;;;;;13.93;12.52;;;;;;;;;;5056011;28;20048;-93
2021/08/22 09:54:44;;;;;;;14.70;13.20;;;;;;;;;;5078641;28;20057;-91
2021/08/22 09:57:19;;;;;;;14.38;11.55;;;;;;;;;;5077379;28;20476;-92
2021/08/22 10:00:06;;;;;;;11.38;10.23;;;;;;;;;;5078029;28;20056;-93
2021/08/22 10:02:47;;;;;;;12.27;11.07;;;;;;;;;;5076789;28;20101;-93
2021/08/22 10:05:28;;;;;;;10.40;9.40;;;;;;;;;;5079581;28;20500;-91
2021/08/22 10:08:10;;;;;;;12.20;11.00;;;;;;;;;;5083353;28;20132;-93
2021/08/22 10:10:38;;;;;;;11.73;10.63;;;;;;;;;;5077264;28;20483;-92
2021/08/22 10:13:04;;;;;;;11.98;10.82;;;;;;;;;;5065157;28;20051;-93
2021/08/22 10:15:30;;;;;;;12.82;11.52;;;;;;;;;;5071300;28;20045;-93
2021/08/22 10:17:56;;;;;;;12.10;10.75;;;;;;;;;;5062039;28;20048;-92
2021/08/22 10:20:39;;;;;;;12.27;11.02;;;;;;;;;;5076188;28;20086;-94
2021/08/22 10:23:05;;;;;;;12.43;11.13;;;;;;;;;;5078614;28;20064;-93
2021/08/22 10:25:48;;;;;;;12.60;11.40;;;;;;;;;;5086259;28;20498;-92
2021/08/22 10:28:14;;;;;;;12.52;11.23;;;;;;;;;;5103846;28;20044;-92
2021/08/22 10:30:43;;;;;;;12.55;11.35;;;;;;;;;;5088238;28;20055;-92
2021/08/22 10:33:10;;;;;;;12.75;11.55;;;;;;;;;;5090748;28;20075;-93
2021/08/22 10:35:36;;;;;;;13.57;12.18;;;;;;;;;;5063742;28;20059;-90
2021/08/22 10:38:18;;;;;;;13.32;11.93;;;;;;;;;;5070189;28;20059;-91
2021/08/22 10:40:44;;;;;;;12.35;11.15;;;;;;;;;;5072486;28;20048;-93
2021/08/22 10:43:10;;;;;;;11.20;10.13;;;;;;;;;;5078931;28;20564;-92
2021/08/22 10:45:42;;;;;;;11.68;10.57;;;;;;;;;;5067704;28;20067;-93
2021/08/22 10:48:09;;;;;;;11.43;10.27;;;;;;;;;;5100337;28;20175;-94
2021/08/22 10:50:54;;;;;;;11.35;10.25;;;;;;;;;;5071795;28;20135;-91
2021/08/22 10:53:26;;;;;;;11.93;10.82;;;;;;;;;;5067546;28;20056;-96
2021/08/22 10:55:53;;;;;;;11.80;10.65;;;;;;;;;;5052721;28;20163;-94
2021/08/22 10:58:19;;;;;;;11.50;10.30;;;;;;;;;;5068382;28;20049;-93
2021/08/22 11:00:46;;;;;;;11.55;10.38;;;;;;;;;;5066531;28;20515;-94
2021/08/22 11:03:18;;;;;;;11.30;10.30;;;;;;;;;;5059451;28;20135;-95
2021/08/22 11:05:45;;;;;;;11.27;10.27;;;;;;;;;;5065822;28;20049;-94
2021/08/22 11:08:16;;;;;;;10.75;9.77;;;;;;;;;;5042731;28;20063;-94
2021/08/22 11:11:01;;;;;;;10.82;9.82;;;;;;;;;;5065884;28;20235;-94
2021/08/22 11:13:29;;;;;;;10.05;9.15;;;;;;;;;;5054918;28;20052;-94
2021/08/22 11:15:56;;;;;;;10.48;9.52;;;;;;;;;;5053863;28;20048;-94
2021/08/22 11:18:24;;;;;;;9.52;8.63;;;;;;;;;;5038992;28;20052;-93
2021/08/22 11:20:51;;;;;;;8.30;7.60;;;;;;;;;;5059578;28;20052;-94
2021/08/22 11:23:17;;;;;;;9.35;8.45;;;;;;;;;;5079338;28;20067;-94
2021/08/22 11:25:45;;;;;;;8.20;7.50;;;;;;;;;;5054410;28;20473;-95
2021/08/22 11:28:13;;;;;;;8.68;7.93;;;;;;;;;;5101697;28;20079;-93
2021/08/22 11:30:39;;;;;;;8.82;8.10;;;;;;;;;;5063016;28;20048;-93
2021/08/22 11:33:06;;;;;;;8.23;7.53;;;;;;;;;;5062855;28;20069;-92
2021/08/22 11:35:36;;;;;;;8.80;8.05;;;;;;;;;;5077313;28;20489;-92
2021/08/22 11:38:03;;;;;;;8.82;8.10;;;;;;;;;;5077428;28;20062;-91
2021/08/22 11:40:30;;;;;;;8.25;7.55;;;;;;;;;;5080071;28;20072;-93
2021/08/22 11:42:57;;;;;;;7.82;7.13;;;;;;;;;;5055837;28;20098;-93
2021/08/22 11:45:30;;;;;;;8.02;7.32;;;;;;;;;;5093263;28;20054;-90
2021/08/22 11:47:57;;;;;;;7.50;6.90;;;;;;;;;;5082402;28;20068;-93
2021/08/22 11:50:30;;;;;;;6.85;6.25;;;;;;;;;;5067109;28;20102;-92
2021/08/22 11:53:00;;;;;;;7.28;6.60;;;;;;;;;;5076415;28;20045;-94
2021/08/22 11:55:32;;;;;;;6.88;6.28;;;;;;;;;;5073816;28;20112;-93
2021/08/22 11:58:12;;;;;;;6.82;6.22;;;;;;;;;;5072952;28;20070;-92
2021/08/22 12:00:39;;;;;;;7.82;7.13;;;;;;;;;;5061949;28;20052;-92
2021/08/22 12:03:05;;;;;;;8.15;7.45;;;;;;;;;;5090231;28;20134;-95
2021/08/22 12:05:33;;;;;;;8.35;7.63;;;;;;;;;;5109337;28;20073;-87
2021/08/22 12:08:04;;;;;;;8.60;7.90;;;;;;;;;;5100499;28;20076;-91
2021/08/22 12:10:30;;;;;;;9.75;8.85;;;;;;;;;;5085673;28;20050;-93
2021/08/22 12:12:57;;;;;;;10.25;9.35;;;;;;;;;;5070988;28;20215;-92
2021/08/22 12:15:32;;;;;;;9.40;8.60;;;;;;;;;;5071769;28;20408;-92
2021/08/22 12:18:14;;;;;;;11.70;10.60;;;;;;;;;;5082738;28;20056;-94
2021/08/22 12:20:40;;;;;;;10.70;9.70;;;;;;;;;;5057837;28;20495;-93
2021/08/22 12:23:08;;;;;;;10.50;9.50;;;;;;;;;;5083125;28;20076;-96
2021/08/22 12:25:35;;;;;;;9.77;8.98;;;;;;;;;;5076049;28;20040;-95
2021/08/22 12:28:20;;;;;;;9.95;9.05;;;;;;;;;;5066981;28;20056;-96
2021/08/22 12:30:47;;;;;;;10.30;9.40;;;;;;;;;;5079465;28;20062;-95
2021/08/22 12:33:34;;;;;;;9.52;8.63;;;;;;;;;;5074438;28;20063;-95
2021/08/22 12:36:03;;;;;;;9.85;9.00;;;;;;;;;;5069912;28;20101;-96
2021/08/22 12:38:43;;;;;;;10.07;9.18;;;;;;;;;;5082076;28;20044;-96
2021/08/22 12:41:21;;;;;;;10.93;9.82;;;;;;;;;;5065205;28;20058;-95
2021/08/22 12:43:47;;;;;;;10.45;9.45;;;;;;;;;;5064205;28;20072;-95
2021/08/22 12:46:14;;;;;;;10.38;9.25;;;;;;;;;;5041100;28;20163;-96
2021/08/22 12:48:44;;;;;;;8.85;8.15;;;;;;;;;;5063774;28;20182;-96
2021/08/22 12:51:11;;;;;;;8.43;7.72;;;;;;;;;;5066563;28;20052;-96
2021/08/22 12:53:37;;;;;;;9.02;8.30;;;;;;;;;;5071402;28;20084;-94
2021/08/22 12:56:04;;;;;;;8.00;7.30;;;;;;;;;;5076204;28;20071;-96
2021/08/22 12:58:30;;;;;;;7.30;6.60;;;;;;;;;;5060384;28;20083;-95
2021/08/22 13:00:57;;;;;;;7.03;6.43;;;;;;;;;;5083796;28;20410;-93
2021/08/22 13:03:23;;;;;;;6.60;6.10;;;;;;;;;;5108334;28;20055;-93
2021/08/22 13:05:50;;;;;;;5.50;5.00;;;;;;;;;;5075058;28;20040;-93
2021/08/22 13:08:16;;;;;;;5.68;5.18;;;;;;;;;;5100067;27;20048;-93
2021/08/22 13:10:42;;;;;;;5.72;5.20;;;;;;;;;;5070475;28;20041;-93
2021/08/22 13:13:09;;;;;;;7.32;6.72;;;;;;;;;;5089848;28;20048;-93
2021/08/22 13:15:35;;;;;;;9.27;8.48;;;;;;;;;;5090946;28;20078;-94
2021/08/22 13:18:01;;;;;;;10.35;9.40;;;;;;;;;;5092113;28;20143;-93
2021/08/22 13:20:28;;;;;;;10.60;9.70;;;;;;;;;;5087953;28;20395;-93
2021/08/22 13:22:56;;;;;;;12.18;10.23;;;;;;;;;;5093103;28;20048;-93
2021/08/22 13:25:22;;;;;;;11.45;10.45;;;;;;;;;;5091930;28;20059;-93
2021/08/22 13:27:49;;;;;;;12.05;10.95;;;;;;;;;;5101687;28;20048;-93
2021/08/22 13:30:15;;;;;;;11.15;10.15;;;;;;;;;;5081088;28;20515;-94
2021/08/22 13:32:42;;;;;;;10.55;9.65;;;;;;;;;;5088809;28;20048;-94
2021/08/22 13:35:08;;;;;;;11.07;10.00;;;;;;;;;;5087138;28;20075;-95
2021/08/22 13:37:35;;;;;;;10.60;9.70;;;;;;;;;;5086821;28;20041;-93
2021/08/22 13:40:01;;;;;;;10.68;9.70;;;;;;;;;;5063947;28;20102;-94
2021/08/22 13:42:27;;;;;;;10.30;9.30;;;;;;;;;;5080191;28;20056;-95
2021/08/22 13:44:53;;;;;;;11.07;9.93;;;;;;;;;;5069739;28;20053;-93
2021/08/22 13:47:20;;;;;;;10.30;9.27;;;;;;;;;;5073022;28;20044;-92
2021/08/22 13:49:46;;;;;;;9.52;8.68;;;;;;;;;;5060959;28;20131;-91
2021/08/22 13:52:13;;;;;;;10.88;9.82;;;;;;;;;;5077321;28;20052;-90
2021/08/22 13:54:39;;;;;;;10.18;9.27;;;;;;;;;;5078626;28;20117;-90
2021/08/22 13:57:06;;;;;;;10.35;9.45;;;;;;;;;;5071589;28;20083;-91
2021/08/22 13:59:32;;;;;;;10.55;9.55;;;;;;;;;;5088658;28;20048;-91
2021/08/22 14:01:58;;;;;;;9.95;9.05;;;;;;;;;;5075445;28;20503;-91
2021/08/22 14:04:26;;;;;;;10.63;9.65;;;;;;;;;;5076162;28;20472;-93
2021/08/22 14:06:52;;;;;;;11.63;10.60;;;;;;;;;;5075292;28;20063;-91
2021/08/22 14:09:18;;;;;;;11.57;10.48;;;;;;;;;;5079425;28;20063;-92
2021/08/22 14:11:44;;;;;;;11.75;10.63;;;;;;;;;;5073571;28;20043;-92
2021/08/22 14:14:11;;;;;;;10.88;9.88;;;;;;;;;;5078007;28;20510;-93
2021/08/22 14:16:37;;;;;;;11.38;10.38;;;;;;;;;;5073064;28;20039;-90
2021/08/22 14:19:03;;;;;;;11.93;10.73;;;;;;;;;;5069665;28;20044;-92
2021/08/22 14:21:29;;;;;;;11.32;10.32;;;;;;;;;;5057728;28;20507;-93
2021/08/22 14:23:56;;;;;;;11.57;10.48;;;;;;;;;;5078141;28;20112;-92
2021/08/22 14:26:22;;;;;;;11.98;10.80;;;;;;;;;;5075448;28;20374;-91
2021/08/22 14:28:48;;;;;;;12.02;10.82;;;;;;;;;;5093743;28;20044;-92